sensor_id;sensor_type;location;lat;lon;timestamp;temperature;humidity
975;DHT22;6115;49.296;10.602;2023-04-25T00:02:33;8.30;67.90
975;DHT22;6115;49.296;10.602;2023-04-25T00:07:35;8.20;67.80
975;DHT22;6115;49.296;10.602;2023-04-25T00:12:35;8.20;67.60
975;DHT22;6115;49.296;10.602;2023-04-25T00:17:36;8.20;68.20
975;DHT22;6115;49.296;10.602;2023-04-25T00:22:38;8.30;68.40
975;DHT22;6115;49.296;10.602;2023-04-25T00:27:39;8.30;67.70
975;DHT22;6115;49.296;10.602;2023-04-25T00:32:39;8.40;66.80
975;DHT22;6115;49.296;10.602;2023-04-25T00:37:40;8.50;67.10
975;DHT22;6115;49.296;10.602;2023-04-25T00:42:41;8.40;67.10
975;DHT22;6115;49.296;10.602;2023-04-25T00:47:43;8.30;68.30
975;DHT22;6115;49.296;10.602;2023-04-25T00:52:44;8.30;68.60
975;DHT22;6115;49.296;10.602;2023-04-25T00:57:45;8.30;68.60
975;DHT22;6115;49.296;10.602;2023-04-25T01:02:46;8.30;68.60
975;DHT22;6115;49.296;10.602;2023-04-25T01:07:47;8.10;68.40
975;DHT22;6115;49.296;10.602;2023-04-25T01:12:47;8.10;68.40
975;DHT22;6115;49.296;10.602;2023-04-25T01:17:48;8.10;68.40
975;DHT22;6115;49.296;10.602;2023-04-25T01:22:50;8.10;68.40
975;DHT22;6115;49.296;10.602;2023-04-25T01:27:51;8.00;69.10
975;DHT22;6115;49.296;10.602;2023-04-25T01:32:56;8.10;69.40
975;DHT22;6115;49.296;10.602;2023-04-25T01:37:57;8.20;69.50
975;DHT22;6115;49.296;10.602;2023-04-25T01:42:58;8.00;69.80
975;DHT22;6115;49.296;10.602;2023-04-25T01:47:59;8.10;70.10
975;DHT22;6115;49.296;10.602;2023-04-25T01:53:00;8.00;70.80
975;DHT22;6115;49.296;10.602;2023-04-25T01:58:05;7.90;71.10
975;DHT22;6115;49.296;10.602;2023-04-25T02:03:10;7.80;71.60
975;DHT22;6115;49.296;10.602;2023-04-25T02:08:10;7.80;72.00
975;DHT22;6115;49.296;10.602;2023-04-25T02:13:11;7.80;72.00
975;DHT22;6115;49.296;10.602;2023-04-25T02:18:11;7.70;72.30
975;DHT22;6115;49.296;10.602;2023-04-25T02:23:12;7.70;72.60
975;DHT22;6115;49.296;10.602;2023-04-25T02:28:12;7.70;72.90
975;DHT22;6115;49.296;10.602;2023-04-25T02:33:13;7.70;72.60
975;DHT22;6115;49.296;10.602;2023-04-25T02:38:13;7.60;72.80
975;DHT22;6115;49.296;10.602;2023-04-25T02:43:14;7.50;72.90
975;DHT22;6115;49.296;10.602;2023-04-25T02:48:16;7.50;73.40
975;DHT22;6115;49.296;10.602;2023-04-25T02:53:16;7.40;73.50
975;DHT22;6115;49.296;10.602;2023-04-25T02:58:17;7.50;73.50
975;DHT22;6115;49.296;10.602;2023-04-25T03:03:18;7.50;73.20
975;DHT22;6115;49.296;10.602;2023-04-25T03:08:21;7.50;72.70
975;DHT22;6115;49.296;10.602;2023-04-25T03:13:22;7.50;72.70
975;DHT22;6115;49.296;10.602;2023-04-25T03:18:23;7.60;72.80
975;DHT22;6115;49.296;10.602;2023-04-25T03:23:24;7.50;72.70
975;DHT22;6115;49.296;10.602;2023-04-25T03:28:24;7.60;72.80
975;DHT22;6115;49.296;10.602;2023-04-25T03:33:25;7.50;72.60
975;DHT22;6115;49.296;10.602;2023-04-25T03:38:26;7.40;72.60
975;DHT22;6115;49.296;10.602;2023-04-25T03:43:26;7.40;72.60
975;DHT22;6115;49.296;10.602;2023-04-25T03:48:27;7.50;72.40
975;DHT22;6115;49.296;10.602;2023-04-25T03:53:28;7.50;72.10
975;DHT22;6115;49.296;10.602;2023-04-25T03:58:28;7.50;71.90
975;DHT22;6115;49.296;10.602;2023-04-25T04:03:29;7.40;72.10
975;DHT22;6115;49.296;10.602;2023-04-25T04:08:30;7.40;71.80
975;DHT22;6115;49.296;10.602;2023-04-25T04:13:30;7.50;71.70
975;DHT22;6115;49.296;10.602;2023-04-25T04:18:31;7.30;71.60
975;DHT22;6115;49.296;10.602;2023-04-25T04:23:33;7.30;72.40
975;DHT22;6115;49.296;10.602;2023-04-25T04:28:34;7.20;72.40
975;DHT22;6115;49.296;10.602;2023-04-25T04:33:36;7.10;72.30
975;DHT22;6115;49.296;10.602;2023-04-25T04:38:37;7.20;72.40
975;DHT22;6115;49.296;10.602;2023-04-25T04:43:37;7.30;72.60
975;DHT22;6115;49.296;10.602;2023-04-25T04:48:39;7.30;72.80
975;DHT22;6115;49.296;10.602;2023-04-25T04:53:40;7.30;72.50
975;DHT22;6115;49.296;10.602;2023-04-25T04:58:41;7.40;72.60
975;DHT22;6115;49.296;10.602;2023-04-25T05:03:41;7.50;71.70
975;DHT22;6115;49.296;10.602;2023-04-25T05:08:42;7.70;71.60
975;DHT22;6115;49.296;10.602;2023-04-25T05:13:42;7.60;70.90
975;DHT22;6115;49.296;10.602;2023-04-25T05:18:43;7.60;71.20
975;DHT22;6115;49.296;10.602;2023-04-25T05:23:43;7.80;71.20
975;DHT22;6115;49.296;10.602;2023-04-25T05:28:44;7.80;71.10
975;DHT22;6115;49.296;10.602;2023-04-25T05:33:44;7.70;71.20
975;DHT22;6115;49.296;10.602;2023-04-25T05:38:45;7.70;72.20
975;DHT22;6115;49.296;10.602;2023-04-25T05:43:46;7.70;71.40
975;DHT22;6115;49.296;10.602;2023-04-25T05:48:49;7.90;71.10
975;DHT22;6115;49.296;10.602;2023-04-25T05:53:49;7.90;70.20
975;DHT22;6115;49.296;10.602;2023-04-25T05:58:50;7.80;69.60
975;DHT22;6115;49.296;10.602;2023-04-25T06:03:50;7.80;69.20
975;DHT22;6115;49.296;10.602;2023-04-25T06:08:52;7.80;69.50
975;DHT22;6115;49.296;10.602;2023-04-25T06:13:53;8.00;68.90
975;DHT22;6115;49.296;10.602;2023-04-25T06:18:54;7.90;68.90
975;DHT22;6115;49.296;10.602;2023-04-25T06:23:54;7.80;70.40
975;DHT22;6115;49.296;10.602;2023-04-25T06:28:55;7.60;72.10
975;DHT22;6115;49.296;10.602;2023-04-25T06:33:56;7.50;73.60
975;DHT22;6115;49.296;10.602;2023-04-25T06:38:56;7.40;74.90
975;DHT22;6115;49.296;10.602;2023-04-25T06:43:57;7.30;75.60
975;DHT22;6115;49.296;10.602;2023-04-25T06:48:57;7.40;76.20
975;DHT22;6115;49.296;10.602;2023-04-25T06:53:58;7.60;76.80
975;DHT22;6115;49.296;10.602;2023-04-25T06:58:59;7.70;76.40
975;DHT22;6115;49.296;10.602;2023-04-25T07:04:01;7.80;75.10
975;DHT22;6115;49.296;10.602;2023-04-25T07:09:01;7.70;73.70
975;DHT22;6115;49.296;10.602;2023-04-25T07:14:03;7.30;74.10
975;DHT22;6115;49.296;10.602;2023-04-25T07:19:03;7.20;76.80
975;DHT22;6115;49.296;10.602;2023-04-25T07:24:05;7.10;75.70
975;DHT22;6115;49.296;10.602;2023-04-25T07:29:06;7.20;76.00
975;DHT22;6115;49.296;10.602;2023-04-25T07:34:07;7.10;75.20
975;DHT22;6115;49.296;10.602;2023-04-25T07:39:07;7.10;76.00
975;DHT22;6115;49.296;10.602;2023-04-25T07:44:09;7.20;76.00
975;DHT22;6115;49.296;10.602;2023-04-25T07:49:10;7.40;76.70
975;DHT22;6115;49.296;10.602;2023-04-25T07:54:13;7.50;76.10
975;DHT22;6115;49.296;10.602;2023-04-25T07:59:14;7.50;75.30
975;DHT22;6115;49.296;10.602;2023-04-25T08:04:14;7.80;77.40
975;DHT22;6115;49.296;10.602;2023-04-25T08:09:15;8.00;74.30
975;DHT22;6115;49.296;10.602;2023-04-25T08:14:16;8.10;73.30
975;DHT22;6115;49.296;10.602;2023-04-25T08:19:16;8.20;72.30
975;DHT22;6115;49.296;10.602;2023-04-25T08:24:17;8.40;71.80
975;DHT22;6115;49.296;10.602;2023-04-25T08:29:17;8.30;67.80
975;DHT22;6115;49.296;10.602;2023-04-25T08:34:19;8.40;68.30
975;DHT22;6115;49.296;10.602;2023-04-25T08:39:20;8.60;67.50
975;DHT22;6115;49.296;10.602;2023-04-25T08:44:22;9.00;64.70
975;DHT22;6115;49.296;10.602;2023-04-25T08:49:24;8.80;63.30
975;DHT22;6115;49.296;10.602;2023-04-25T08:54:27;8.80;63.50
975;DHT22;6115;49.296;10.602;2023-04-25T08:59:28;9.30;63.90
975;DHT22;6115;49.296;10.602;2023-04-25T09:04:32;9.20;59.60
975;DHT22;6115;49.296;10.602;2023-04-25T09:09:33;9.10;58.00
975;DHT22;6115;49.296;10.602;2023-04-25T09:14:33;9.50;57.10
975;DHT22;6115;49.296;10.602;2023-04-25T09:19:37;10.00;56.30
975;DHT22;6115;49.296;10.602;2023-04-25T09:24:44;10.30;54.20
975;DHT22;6115;49.296;10.602;2023-04-25T09:29:46;10.10;54.80
975;DHT22;6115;49.296;10.602;2023-04-25T09:34:48;10.40;51.50
975;DHT22;6115;49.296;10.602;2023-04-25T09:39:54;10.70;51.10
975;DHT22;6115;49.296;10.602;2023-04-25T09:44:56;11.20;51.00
975;DHT22;6115;49.296;10.602;2023-04-25T09:49:56;11.40;47.70
975;DHT22;6115;49.296;10.602;2023-04-25T09:54:57;11.30;47.60
975;DHT22;6115;49.296;10.602;2023-04-25T10:00:00;10.90;49.70
975;DHT22;6115;49.296;10.602;2023-04-25T10:05:02;11.00;49.60
975;DHT22;6115;49.296;10.602;2023-04-25T10:10:06;11.50;47.90
975;DHT22;6115;49.296;10.602;2023-04-25T10:15:08;11.90;47.30
975;DHT22;6115;49.296;10.602;2023-04-25T10:20:09;12.30;46.00
975;DHT22;6115;49.296;10.602;2023-04-25T10:25:11;12.10;47.80
975;DHT22;6115;49.296;10.602;2023-04-25T10:30:15;12.50;44.30
975;DHT22;6115;49.296;10.602;2023-04-25T10:35:19;13.10;44.10
975;DHT22;6115;49.296;10.602;2023-04-25T10:40:22;13.20;42.20
975;DHT22;6115;49.296;10.602;2023-04-25T10:45:23;13.00;41.50
975;DHT22;6115;49.296;10.602;2023-04-25T10:50:37;13.20;41.60
975;DHT22;6115;49.296;10.602;2023-04-25T10:55:51;13.80;40.50
975;DHT22;6115;49.296;10.602;2023-04-25T11:00:52;13.10;40.90
975;DHT22;6115;49.296;10.602;2023-04-25T11:05:52;13.30;40.40
975;DHT22;6115;49.296;10.602;2023-04-25T11:10:53;13.00;40.20
975;DHT22;6115;49.296;10.602;2023-04-25T11:15:55;13.10;39.50
975;DHT22;6115;49.296;10.602;2023-04-25T11:20:55;12.10;40.50
975;DHT22;6115;49.296;10.602;2023-04-25T11:25:56;12.20;41.80
975;DHT22;6115;49.296;10.602;2023-04-25T11:30:56;12.10;42.30
975;DHT22;6115;49.296;10.602;2023-04-25T11:35:57;12.00;43.20
975;DHT22;6115;49.296;10.602;2023-04-25T11:40:58;12.50;43.10
975;DHT22;6115;49.296;10.602;2023-04-25T11:45:59;12.50;42.10
975;DHT22;6115;49.296;10.602;2023-04-25T11:51:00;12.40;41.40
975;DHT22;6115;49.296;10.602;2023-04-25T11:56:01;12.10;42.10
975;DHT22;6115;49.296;10.602;2023-04-25T12:01:03;12.00;41.50
975;DHT22;6115;49.296;10.602;2023-04-25T12:06:03;12.10;41.40
975;DHT22;6115;49.296;10.602;2023-04-25T12:11:19;12.10;41.80
975;DHT22;6115;49.296;10.602;2023-04-25T12:16:20;11.90;41.80
975;DHT22;6115;49.296;10.602;2023-04-25T12:21:21;12.10;42.50
975;DHT22;6115;49.296;10.602;2023-04-25T12:26:22;12.10;43.30
975;DHT22;6115;49.296;10.602;2023-04-25T12:31:23;12.00;43.60
975;DHT22;6115;49.296;10.602;2023-04-25T12:36:25;11.80;43.00
975;DHT22;6115;49.296;10.602;2023-04-25T12:41:26;11.80;43.80
975;DHT22;6115;49.296;10.602;2023-04-25T12:46:26;12.00;43.70
975;DHT22;6115;49.296;10.602;2023-04-25T12:51:27;12.10;44.10
975;DHT22;6115;49.296;10.602;2023-04-25T12:56:29;12.10;43.30
975;DHT22;6115;49.296;10.602;2023-04-25T13:01:29;11.80;43.00
975;DHT22;6115;49.296;10.602;2023-04-25T13:06:30;11.60;42.80
975;DHT22;6115;49.296;10.602;2023-04-25T13:11:31;11.50;43.40
975;DHT22;6115;49.296;10.602;2023-04-25T13:16:31;11.50;43.80
975;DHT22;6115;49.296;10.602;2023-04-25T13:21:32;11.50;43.40
975;DHT22;6115;49.296;10.602;2023-04-25T13:26:32;11.10;43.40
975;DHT22;6115;49.296;10.602;2023-04-25T13:31:33;11.20;43.60
975;DHT22;6115;49.296;10.602;2023-04-25T13:36:34;11.40;43.80
975;DHT22;6115;49.296;10.602;2023-04-25T13:41:34;11.20;43.60
975;DHT22;6115;49.296;10.602;2023-04-25T13:46:36;11.50;43.20
975;DHT22;6115;49.296;10.602;2023-04-25T13:51:37;11.50;42.80
975;DHT22;6115;49.296;10.602;2023-04-25T13:56:38;11.30;42.80
975;DHT22;6115;49.296;10.602;2023-04-25T14:01:38;11.00;42.80
975;DHT22;6115;49.296;10.602;2023-04-25T14:06:39;11.00;43.00
975;DHT22;6115;49.296;10.602;2023-04-25T14:11:40;11.40;42.70
975;DHT22;6115;49.296;10.602;2023-04-25T14:16:40;11.60;41.60
975;DHT22;6115;49.296;10.602;2023-04-25T14:21:41;11.50;42.00
975;DHT22;6115;49.296;10.602;2023-04-25T14:26:42;11.60;42.50
975;DHT22;6115;49.296;10.602;2023-04-25T14:31:43;12.10;43.30
975;DHT22;6115;49.296;10.602;2023-04-25T14:36:43;12.60;40.90
975;DHT22;6115;49.296;10.602;2023-04-25T14:41:44;12.90;40.70
975;DHT22;6115;49.296;10.602;2023-04-25T14:46:45;12.80;40.70
975;DHT22;6115;49.296;10.602;2023-04-25T14:51:46;12.50;39.50
975;DHT22;6115;49.296;10.602;2023-04-25T14:56:46;12.10;40.80
975;DHT22;6115;49.296;10.602;2023-04-25T15:01:47;12.00;40.90
975;DHT22;6115;49.296;10.602;2023-04-25T15:06:47;11.70;40.70
975;DHT22;6115;49.296;10.602;2023-04-25T15:11:48;11.60;41.90
975;DHT22;6115;49.296;10.602;2023-04-25T15:16:48;11.30;41.90
975;DHT22;6115;49.296;10.602;2023-04-25T15:21:49;11.60;42.60
975;DHT22;6115;49.296;10.602;2023-04-25T15:26:50;12.10;41.30
975;DHT22;6115;49.296;10.602;2023-04-25T15:31:50;12.20;41.00
975;DHT22;6115;49.296;10.602;2023-04-25T15:36:51;12.00;42.00
975;DHT22;6115;49.296;10.602;2023-04-25T15:41:52;11.80;40.90
975;DHT22;6115;49.296;10.602;2023-04-25T15:46:52;11.30;42.60
975;DHT22;6115;49.296;10.602;2023-04-25T15:51:53;11.00;42.30
975;DHT22;6115;49.296;10.602;2023-04-25T15:56:54;10.90;44.10
975;DHT22;6115;49.296;10.602;2023-04-25T16:01:55;10.70;46.00
975;DHT22;6115;49.296;10.602;2023-04-25T16:06:56;10.80;46.70
975;DHT22;6115;49.296;10.602;2023-04-25T16:11:57;10.90;46.40
975;DHT22;6115;49.296;10.602;2023-04-25T16:16:58;10.80;46.40
975;DHT22;6115;49.296;10.602;2023-04-25T16:21:59;11.00;47.00
975;DHT22;6115;49.296;10.602;2023-04-25T16:27:01;11.20;46.60
975;DHT22;6115;49.296;10.602;2023-04-25T16:32:03;11.30;46.00
975;DHT22;6115;49.296;10.602;2023-04-25T16:37:04;11.20;45.60
975;DHT22;6115;49.296;10.602;2023-04-25T16:42:05;10.90;45.00
975;DHT22;6115;49.296;10.602;2023-04-25T16:47:05;10.80;46.50
975;DHT22;6115;49.296;10.602;2023-04-25T16:52:06;10.70;46.20
975;DHT22;6115;49.296;10.602;2023-04-25T16:57:06;10.80;46.70
975;DHT22;6115;49.296;10.602;2023-04-25T17:02:11;10.70;46.60
975;DHT22;6115;49.296;10.602;2023-04-25T17:07:12;10.70;45.40
975;DHT22;6115;49.296;10.602;2023-04-25T17:12:13;10.60;45.20
975;DHT22;6115;49.296;10.602;2023-04-25T17:17:13;10.30;44.40
975;DHT22;6115;49.296;10.602;2023-04-25T17:22:14;10.30;44.90
975;DHT22;6115;49.296;10.602;2023-04-25T17:27:15;10.10;45.60
975;DHT22;6115;49.296;10.602;2023-04-25T17:32:16;10.00;45.80
975;DHT22;6115;49.296;10.602;2023-04-25T17:37:17;9.80;45.90
975;DHT22;6115;49.296;10.602;2023-04-25T17:42:18;9.90;46.50
975;DHT22;6115;49.296;10.602;2023-04-25T17:47:18;9.90;46.00
975;DHT22;6115;49.296;10.602;2023-04-25T17:52:19;9.90;45.40
975;DHT22;6115;49.296;10.602;2023-04-25T17:57:20;9.70;45.20
975;DHT22;6115;49.296;10.602;2023-04-25T18:02:25;9.70;45.50
975;DHT22;6115;49.296;10.602;2023-04-25T18:07:26;9.70;45.50
975;DHT22;6115;49.296;10.602;2023-04-25T18:12:26;9.60;45.80
975;DHT22;6115;49.296;10.602;2023-04-25T18:17:27;9.50;45.90
975;DHT22;6115;49.296;10.602;2023-04-25T18:22:27;9.40;46.40
975;DHT22;6115;49.296;10.602;2023-04-25T18:27:28;9.30;46.40
975;DHT22;6115;49.296;10.602;2023-04-25T18:32:28;9.40;47.10
975;DHT22;6115;49.296;10.602;2023-04-25T18:37:29;9.30;47.60
975;DHT22;6115;49.296;10.602;2023-04-25T18:42:30;9.20;47.00
975;DHT22;6115;49.296;10.602;2023-04-25T18:47:30;9.20;46.30
975;DHT22;6115;49.296;10.602;2023-04-25T18:52:31;9.10;46.90
975;DHT22;6115;49.296;10.602;2023-04-25T18:57:33;9.00;46.10
975;DHT22;6115;49.296;10.602;2023-04-25T19:02:34;9.00;46.50
975;DHT22;6115;49.296;10.602;2023-04-25T19:07:36;8.90;46.90
975;DHT22;6115;49.296;10.602;2023-04-25T19:12:38;8.90;47.00
975;DHT22;6115;49.296;10.602;2023-04-25T19:17:39;8.90;47.30
975;DHT22;6115;49.296;10.602;2023-04-25T19:22:41;9.00;47.30
975;DHT22;6115;49.296;10.602;2023-04-25T19:27:42;8.90;47.50
975;DHT22;6115;49.296;10.602;2023-04-25T19:32:42;8.90;47.40
975;DHT22;6115;49.296;10.602;2023-04-25T19:37:44;9.00;47.90
975;DHT22;6115;49.296;10.602;2023-04-25T19:42:46;9.00;47.90
975;DHT22;6115;49.296;10.602;2023-04-25T19:47:46;8.90;48.30
975;DHT22;6115;49.296;10.602;2023-04-25T19:52:48;8.90;48.50
975;DHT22;6115;49.296;10.602;2023-04-25T19:57:49;8.80;48.50
975;DHT22;6115;49.296;10.602;2023-04-25T20:02:50;8.80;48.70
975;DHT22;6115;49.296;10.602;2023-04-25T20:07:51;8.80;48.90
975;DHT22;6115;49.296;10.602;2023-04-25T20:12:54;8.60;49.10
975;DHT22;6115;49.296;10.602;2023-04-25T20:17:55;8.60;49.30
975;DHT22;6115;49.296;10.602;2023-04-25T20:22:55;8.50;49.40
975;DHT22;6115;49.296;10.602;2023-04-25T20:27:56;8.40;50.10
975;DHT22;6115;49.296;10.602;2023-04-25T20:32:57;8.50;50.20
975;DHT22;6115;49.296;10.602;2023-04-25T20:37:57;8.50;49.80
975;DHT22;6115;49.296;10.602;2023-04-25T20:42:58;8.30;49.60
975;DHT22;6115;49.296;10.602;2023-04-25T20:47:58;8.20;50.00
975;DHT22;6115;49.296;10.602;2023-04-25T20:52:59;8.00;49.80
975;DHT22;6115;49.296;10.602;2023-04-25T20:57:59;7.90;49.70
975;DHT22;6115;49.296;10.602;2023-04-25T21:03:00;7.80;50.30
975;DHT22;6115;49.296;10.602;2023-04-25T21:08:04;7.70;50.70
975;DHT22;6115;49.296;10.602;2023-04-25T21:13:05;7.70;50.90
975;DHT22;6115;49.296;10.602;2023-04-25T21:18:05;7.70;51.00
975;DHT22;6115;49.296;10.602;2023-04-25T21:23:06;7.70;51.00
975;DHT22;6115;49.296;10.602;2023-04-25T21:28:07;7.80;51.10
975;DHT22;6115;49.296;10.602;2023-04-25T21:33:11;7.80;51.50
975;DHT22;6115;49.296;10.602;2023-04-25T21:38:12;7.70;51.60
975;DHT22;6115;49.296;10.602;2023-04-25T21:43:13;7.70;51.90
975;DHT22;6115;49.296;10.602;2023-04-25T21:48:14;7.50;52.10
975;DHT22;6115;49.296;10.602;2023-04-25T21:53:15;7.40;52.00
975;DHT22;6115;49.296;10.602;2023-04-25T21:58:15;7.30;52.10
975;DHT22;6115;49.296;10.602;2023-04-25T22:03:16;7.30;52.10
975;DHT22;6115;49.296;10.602;2023-04-25T22:08:19;7.30;52.00
975;DHT22;6115;49.296;10.602;2023-04-25T22:13:20;7.20;52.00
975;DHT22;6115;49.296;10.602;2023-04-25T22:18:20;7.10;52.10
975;DHT22;6115;49.296;10.602;2023-04-25T22:23:21;6.90;52.10
975;DHT22;6115;49.296;10.602;2023-04-25T22:28:22;6.90;52.20
975;DHT22;6115;49.296;10.602;2023-04-25T22:33:22;6.80;52.50
975;DHT22;6115;49.296;10.602;2023-04-25T22:38:23;6.70;52.70
975;DHT22;6115;49.296;10.602;2023-04-25T22:43:23;6.60;53.10
975;DHT22;6115;49.296;10.602;2023-04-25T22:48:24;6.50;53.00
975;DHT22;6115;49.296;10.602;2023-04-25T22:53:25;6.40;53.50
975;DHT22;6115;49.296;10.602;2023-04-25T22:58:25;6.40;54.00
975;DHT22;6115;49.296;10.602;2023-04-25T23:03:26;6.30;54.40
975;DHT22;6115;49.296;10.602;2023-04-25T23:08:26;6.30;54.70
975;DHT22;6115;49.296;10.602;2023-04-25T23:13:27;6.30;54.90
975;DHT22;6115;49.296;10.602;2023-04-25T23:18:27;6.30;55.00
975;DHT22;6115;49.296;10.602;2023-04-25T23:23:28;6.20;55.20
975;DHT22;6115;49.296;10.602;2023-04-25T23:28:29;6.20;55.40
975;DHT22;6115;49.296;10.602;2023-04-25T23:33:30;6.10;55.60
975;DHT22;6115;49.296;10.602;2023-04-25T23:38:31;6.00;55.80
975;DHT22;6115;49.296;10.602;2023-04-25T23:43:31;5.90;55.90
975;DHT22;6115;49.296;10.602;2023-04-25T23:48:32;5.80;56.20
975;DHT22;6115;49.296;10.602;2023-04-25T23:53:32;5.70;56.30
975;DHT22;6115;49.296;10.602;2023-04-25T23:58:33;5.70;56.80
